Time;durP1;ratioP1;P1;durP2;ratioP2;P2;SDS_P1;SDS_P2;PMS_P1;PMS_P2;Temp;Humidity;BMP_temperature;BMP_pressure;BME280_temperature;BME280_humidity;BME280_pressure;Samples;Min_cycle;Max_cycle;Signal;HPM_P1;HPM_P2
2022/02/12 00:04:39;;;;;;;10.73;7.03;;;3.90;99.90;;;;;;10440699;28;20289;-77
2022/02/12 00:09:42;;;;;;;8.83;8.00;;;3.80;99.90;;;;;;10405406;28;20839;-76
2022/02/12 00:14:44;;;;;;;12.10;7.60;;;3.80;99.90;;;;;;10434328;28;20214;-77
2022/02/12 00:19:48;;;;;;;9.30;7.30;;;3.70;99.90;;;;;;10447733;28;20240;-77
2022/02/12 00:24:50;;;;;;;11.77;8.77;;;3.70;99.90;;;;;;10411475;28;20363;-77
2022/02/12 00:29:52;;;;;;;9.60;7.10;;;3.70;99.90;;;;;;10432363;28;20300;-77
2022/02/12 00:34:55;;;;;;;10.53;7.90;;;3.80;99.90;;;;;;10454313;28;20204;-77
2022/02/12 00:39:58;;;;;;;8.47;7.20;;;3.80;99.90;;;;;;10448907;28;20235;-77
2022/02/12 00:45:00;;;;;;;8.70;7.10;;;3.80;99.90;;;;;;10438857;28;20241;-77
2022/02/12 00:50:04;;;;;;;10.87;8.50;;;3.70;99.90;;;;;;10426672;28;20221;-77
2022/02/12 00:55:07;;;;;;;13.23;9.63;;;3.70;99.90;;;;;;10437259;28;20232;-77
2022/02/12 01:00:10;;;;;;;12.97;11.43;;;3.60;99.90;;;;;;10417751;28;20225;-76
2022/02/12 01:05:14;;;;;;;12.37;10.93;;;3.60;99.90;;;;;;10451943;28;21202;-77
2022/02/12 01:10:16;;;;;;;13.60;11.30;;;3.60;99.90;;;;;;10446642;28;20239;-77
2022/02/12 01:15:18;;;;;;;13.80;12.40;;;3.60;99.90;;;;;;10435916;28;20697;-76
2022/02/12 01:20:23;;;;;;;14.37;12.87;;;3.60;99.90;;;;;;10449753;28;20221;-76
2022/02/12 01:25:27;;;;;;;17.70;15.90;;;3.60;99.90;;;;;;10421305;28;20221;-77
2022/02/12 01:30:30;;;;;;;18.03;15.67;;;3.60;99.90;;;;;;10406293;28;20301;-77
2022/02/12 01:35:34;;;;;;;16.07;14.37;;;3.60;99.90;;;;;;10403940;28;20205;-77
2022/02/12 01:40:36;;;;;;;15.33;13.73;;;3.60;99.90;;;;;;10419647;28;20228;-77
2022/02/12 01:45:41;;;;;;;16.07;14.47;;;3.60;99.90;;;;;;10397839;28;20582;-77
2022/02/12 01:50:46;;;;;;;16.80;14.20;;;3.60;99.90;;;;;;10415284;28;20219;-79
2022/02/12 01:55:49;;;;;;;17.60;15.00;;;3.50;99.90;;;;;;10433069;28;20249;-79
2022/02/12 02:00:51;;;;;;;17.30;15.50;;;3.50;99.90;;;;;;10443872;28;20225;-79
2022/02/12 02:05:55;;;;;;;17.80;15.97;;;3.50;99.90;;;;;;10453066;28;20224;-79
2022/02/12 02:10:58;;;;;;;17.13;15.00;;;3.50;99.90;;;;;;10452073;22;20307;-78
2022/02/12 02:16:00;;;;;;;18.70;15.07;;;3.50;99.90;;;;;;10429899;28;20209;-77
2022/02/12 02:21:05;;;;;;;16.03;14.33;;;3.40;99.90;;;;;;10411519;28;20225;-80
2022/02/12 02:26:09;;;;;;;16.00;14.40;;;3.40;99.90;;;;;;10411257;28;20207;-80
2022/02/12 02:31:15;;;;;;;13.80;12.40;;;3.30;99.90;;;;;;10379411;28;20222;-79
2022/02/12 02:36:17;;;;;;;14.20;12.80;;;3.20;99.90;;;;;;10414823;28;20194;-80
2022/02/12 02:41:20;;;;;;;13.10;11.80;;;3.20;99.90;;;;;;10414849;28;20218;-79
2022/02/12 02:46:22;;;;;;;14.30;12.20;;;3.10;99.90;;;;;;10394938;28;20681;-79
2022/02/12 02:56:45;;;;;;;14.90;12.87;;;3.00;99.90;;;;;;10423534;28;20276;-79
2022/02/12 03:01:52;;;;;;;13.03;11.70;;;2.90;99.90;;;;;;10399865;28;20313;-80
2022/02/12 03:06:54;;;;;;;12.07;10.67;;;2.90;99.90;;;;;;10393288;28;20233;-79
2022/02/12 03:11:58;;;;;;;14.97;10.53;;;2.90;99.90;;;;;;10401359;28;20601;-79
2022/02/12 03:17:00;;;;;;;13.57;11.10;;;2.90;99.90;;;;;;10413302;28;20605;-79
2022/02/12 03:22:03;;;;;;;12.53;9.67;;;2.80;99.90;;;;;;10395252;28;20301;-80
2022/02/12 03:27:07;;;;;;;11.10;10.00;;;2.90;99.90;;;;;;10405357;28;20321;-80
2022/02/12 03:32:09;;;;;;;14.03;12.57;;;2.90;99.90;;;;;;10415401;28;20221;-80
2022/02/12 03:37:11;;;;;;;10.13;9.00;;;3.00;99.90;;;;;;10441820;28;20220;-80
2022/02/12 03:42:15;;;;;;;11.23;10.07;;;2.90;99.90;;;;;;10415524;28;20228;-78
2022/02/12 03:47:17;;;;;;;11.90;10.70;;;2.90;99.90;;;;;;10428579;28;20311;-79
2022/02/12 03:52:19;;;;;;;13.20;10.37;;;2.80;99.90;;;;;;10391302;28;20232;-78
2022/02/12 03:57:22;;;;;;;18.43;12.40;;;2.80;99.90;;;;;;10409250;28;20287;-80
2022/02/12 04:02:25;;;;;;;13.33;11.93;;;2.90;99.90;;;;;;10432868;28;20731;-79
2022/02/12 04:07:27;;;;;;;13.90;12.50;;;2.90;99.90;;;;;;10379225;28;20221;-78
2022/02/12 04:12:31;;;;;;;14.30;12.60;;;2.90;99.90;;;;;;10430292;28;20232;-79
2022/02/12 04:17:34;;;;;;;13.00;11.60;;;2.90;99.90;;;;;;10401916;28;20213;-79
2022/02/12 04:22:37;;;;;;;13.03;11.50;;;2.90;99.90;;;;;;10390342;28;20213;-80
2022/02/12 04:27:41;;;;;;;17.50;14.10;;;2.90;99.90;;;;;;10417500;28;20301;-79
2022/02/12 04:32:44;;;;;;;15.67;14.07;;;2.90;99.90;;;;;;10390546;28;20370;-79
2022/02/12 04:37:47;;;;;;;19.07;17.07;;;2.90;99.90;;;;;;10419566;28;20589;-80
2022/02/12 04:42:50;;;;;;;19.13;16.73;;;2.90;99.90;;;;;;10425835;28;20681;-80
2022/02/12 04:47:52;;;;;;;19.13;17.13;;;2.90;99.90;;;;;;10406322;28;20244;-79
2022/02/12 04:52:55;;;;;;;22.70;19.30;;;2.90;99.90;;;;;;10388202;28;20589;-80
2022/02/12 04:57:58;;;;;;;18.37;16.57;;;3.00;99.90;;;;;;10423273;28;20561;-80
2022/02/12 05:03:01;;;;;;;19.27;17.10;;;3.10;99.90;;;;;;10424545;28;20272;-81
2022/02/12 05:08:03;;;;;;;24.77;18.63;;;3.10;99.90;;;;;;10422639;28;20305;-81
2022/02/12 05:13:06;;;;;;;22.03;19.30;;;3.20;99.90;;;;;;10397485;28;20243;-81
2022/02/12 05:18:08;;;;;;;21.83;18.07;;;3.30;99.90;;;;;;10423533;28;20327;-80
2022/02/12 05:23:10;;;;;;;21.20;18.93;;;3.20;99.90;;;;;;10388036;28;20233;-79
2022/02/12 05:28:16;;;;;;;25.20;17.00;;;3.20;99.90;;;;;;10378748;28;20681;-81
2022/02/12 05:33:18;;;;;;;21.40;18.20;;;3.10;99.90;;;;;;10409957;28;20222;-81
2022/02/12 05:38:20;;;;;;;18.93;16.53;;;2.90;99.90;;;;;;10399981;28;20213;-81
2022/02/12 05:43:23;;;;;;;22.80;18.80;;;2.90;99.90;;;;;;10430596;28;20224;-81
2022/02/12 05:48:26;;;;;;;20.47;18.30;;;2.80;99.90;;;;;;10400524;28;20224;-80
2022/02/12 05:53:28;;;;;;;15.83;14.10;;;2.90;99.90;;;;;;10419059;28;20998;-79
2022/02/12 05:58:31;;;;;;;26.83;20.13;;;2.90;99.90;;;;;;10411986;28;20281;-81
2022/02/12 06:03:33;;;;;;;23.13;19.20;;;3.10;99.90;;;;;;10420085;28;20226;-79
2022/02/12 06:08:35;;;;;;;22.17;18.83;;;3.10;99.90;;;;;;10391772;28;20253;-80
2022/02/12 06:13:39;;;;;;;21.93;18.40;;;3.20;99.90;;;;;;10423498;28;20710;-80
2022/02/12 06:18:44;;;;;;;20.83;18.10;;;3.20;99.90;;;;;;10433158;28;20248;-81
2022/02/12 06:23:46;;;;;;;19.03;16.77;;;3.30;99.90;;;;;;10417966;28;20228;-81
2022/02/12 06:28:50;;;;;;;22.17;17.73;;;3.30;99.90;;;;;;10405116;28;20240;-81
2022/02/12 06:33:54;;;;;;;19.33;17.33;;;3.40;99.90;;;;;;10407498;28;20226;-82
2022/02/12 06:38:56;;;;;;;19.87;17.30;;;3.30;99.90;;;;;;10415597;28;20193;-82
2022/02/12 06:43:59;;;;;;;23.00;15.90;;;3.30;99.90;;;;;;10419799;28;20702;-81
2022/02/12 06:49:04;;;;;;;17.33;15.37;;;3.30;99.90;;;;;;10386744;28;20254;-81
2022/02/12 06:54:06;;;;;;;20.07;17.10;;;3.10;99.90;;;;;;10396995;28;20217;-81
2022/02/12 06:59:10;;;;;;;24.27;17.53;;;3.00;99.90;;;;;;10408592;28;20194;-81
2022/02/12 07:04:14;;;;;;;19.40;17.40;;;2.90;99.90;;;;;;10407950;28;20340;-81
2022/02/12 07:09:17;;;;;;;19.00;16.43;;;2.80;99.90;;;;;;10396933;28;20656;-82
2022/02/12 07:14:24;;;;;;;20.03;16.83;;;2.70;99.90;;;;;;10417230;28;20765;-82
2022/02/12 07:19:26;;;;;;;18.57;16.57;;;2.80;99.90;;;;;;10442261;28;20208;-80
2022/02/12 07:24:28;;;;;;;21.73;16.90;;;2.90;99.90;;;;;;10399060;28;20255;-82
2022/02/12 07:29:32;;;;;;;21.40;17.53;;;2.90;99.90;;;;;;10412718;28;20226;-80
2022/02/12 07:34:37;;;;;;;21.30;17.57;;;2.90;99.90;;;;;;10400930;28;20229;-79
2022/02/12 07:39:39;;;;;;;20.03;16.47;;;2.90;99.90;;;;;;10421484;28;20702;-78
2022/02/12 07:44:42;;;;;;;19.60;17.50;;;2.90;99.90;;;;;;10399318;28;20229;-79
2022/02/12 07:49:44;;;;;;;17.67;15.87;;;3.00;99.90;;;;;;10382296;28;20222;-79
2022/02/12 07:54:46;;;;;;;23.80;16.77;;;3.00;99.90;;;;;;10425579;28;20296;-82
2022/02/12 07:59:50;;;;;;;20.57;16.67;;;3.10;99.90;;;;;;10408917;28;20220;-82
2022/02/12 08:04:52;;;;;;;20.00;16.90;;;3.20;99.90;;;;;;10403727;28;20205;-81
2022/02/12 08:09:54;;;;;;;17.63;15.70;;;3.30;99.90;;;;;;10425343;28;20219;-84
2022/02/12 08:15:00;;;;;;;19.80;16.87;;;3.40;99.90;;;;;;10388117;28;20869;-80
2022/02/12 08:20:02;;;;;;;22.37;18.50;;;3.60;99.90;;;;;;10399972;28;20190;-81
2022/02/12 08:25:05;;;;;;;21.37;18.67;;;3.60;99.90;;;;;;10388175;28;20225;-85
2022/02/12 08:30:10;;;;;;;20.17;17.97;;;3.60;99.90;;;;;;10391095;28;20229;-84
2022/02/12 08:35:13;;;;;;;19.33;16.50;;;3.50;99.90;;;;;;10385563;28;20205;-84
2022/02/12 08:40:18;;;;;;;19.00;17.00;;;3.50;99.90;;;;;;10394984;28;20296;-84
2022/02/12 08:45:21;;;;;;;19.53;17.63;;;3.50;99.90;;;;;;10386583;28;20560;-84
2022/02/12 08:50:24;;;;;;;23.20;18.03;;;3.60;99.90;;;;;;10394239;28;20238;-84
2022/02/12 08:55:26;;;;;;;23.70;18.07;;;3.60;99.90;;;;;;10370653;28;20233;-84
2022/02/12 09:00:29;;;;;;;26.17;17.53;;;3.70;99.90;;;;;;10362044;28;20732;-85
2022/02/12 09:05:31;;;;;;;21.60;17.77;;;3.80;99.90;;;;;;10386046;28;20198;-84
2022/02/12 09:10:34;;;;;;;21.70;18.40;;;3.90;99.90;;;;;;10390751;28;20233;-84
2022/02/12 09:15:37;;;;;;;23.60;19.57;;;4.00;99.90;;;;;;10390203;28;20701;-83
2022/02/12 09:20:40;;;;;;;20.53;18.13;;;4.10;99.90;;;;;;10381888;28;21012;-84
2022/02/12 09:25:42;;;;;;;22.80;18.03;;;4.20;99.90;;;;;;10424109;28;20308;-82
2022/02/12 09:30:47;;;;;;;21.80;17.17;;;4.40;99.90;;;;;;10394100;28;20313;-82
2022/02/12 09:35:53;;;;;;;25.70;18.73;;;4.50;99.90;;;;;;10413273;28;20476;-81
2022/02/12 09:40:56;;;;;;;21.77;18.53;;;4.60;99.90;;;;;;10428683;28;20239;-82
2022/02/12 09:46:15;;;;;;;24.60;16.97;;;4.70;99.90;;;;;;10417770;28;20197;-78
2022/02/12 09:51:18;;;;;;;18.50;16.50;;;4.80;99.90;;;;;;10414228;28;20656;-79
2022/02/12 09:56:20;;;;;;;20.77;16.10;;;5.00;99.90;;;;;;10423498;28;20301;-80
2022/02/12 10:01:23;;;;;;;17.40;15.13;;;5.10;99.90;;;;;;10421105;28;20650;-80
2022/02/12 10:06:42;;;;;;;19.90;12.23;;;5.30;99.90;;;;;;10423747;28;20656;-80
2022/02/12 10:11:46;;;;;;;8.87;7.93;;;5.40;99.90;;;;;;10430891;28;20255;-78
2022/02/12 10:16:55;;;;;;;9.23;7.60;;;5.50;99.90;;;;;;10402028;28;20211;-80
2022/02/12 10:22:13;;;;;;;15.80;8.10;;;5.50;99.90;;;;;;10430902;28;20238;-79
2022/02/12 10:27:15;;;;;;;9.80;8.00;;;5.60;99.90;;;;;;10429834;28;20222;-79
2022/02/12 10:32:23;;;;;;;10.13;7.57;;;5.70;99.90;;;;;;10411376;28;20236;-80
2022/02/12 10:37:27;;;;;;;12.67;8.80;;;5.60;99.90;;;;;;10426509;28;20618;-80
2022/02/12 10:42:32;;;;;;;10.30;7.30;;;5.70;99.90;;;;;;10430450;28;20221;-80
2022/02/12 10:47:35;;;;;;;12.60;8.27;;;5.80;99.90;;;;;;10422734;28;20622;-80
2022/02/12 10:52:43;;;;;;;15.17;8.17;;;5.80;99.90;;;;;;10415958;28;20272;-79
2022/02/12 10:57:46;;;;;;;9.27;7.50;;;5.90;99.90;;;;;;10414333;28;20827;-79
2022/02/12 11:02:50;;;;;;;14.63;7.60;;;6.00;99.90;;;;;;10410998;28;20224;-83
2022/02/12 11:07:53;;;;;;;10.23;8.00;;;6.00;99.90;;;;;;10400516;28;20214;-82
2022/02/12 11:12:57;;;;;;;13.47;8.10;;;6.00;99.90;;;;;;10396687;28;20237;-80
2022/02/12 11:18:08;;;;;;;9.70;7.20;;;6.10;99.90;;;;;;10396828;28;20280;-80
2022/02/12 11:23:32;;;;;;;9.57;6.77;;;6.20;99.90;;;;;;10404351;28;20658;-81
2022/02/12 11:28:35;;;;;;;10.57;6.90;;;6.20;97.80;;;;;;10407929;28;20304;-80
2022/02/12 11:33:38;;;;;;;10.63;6.90;;;6.20;98.60;;;;;;10424294;28;20642;-80
2022/02/12 11:38:43;;;;;;;6.97;5.90;;;6.30;97.60;;;;;;10419622;28;20202;-80
2022/02/12 11:43:46;;;;;;;9.83;6.30;;;6.40;97.10;;;;;;10400104;28;20594;-81
2022/02/12 11:48:50;;;;;;;8.63;6.00;;;6.50;98.50;;;;;;10419901;28;20656;-77
2022/02/12 11:53:54;;;;;;;9.90;6.77;;;6.60;96.60;;;;;;10402889;28;20647;-78
2022/02/12 11:59:05;;;;;;;9.03;5.83;;;6.70;94.70;;;;;;10399270;28;20677;-78
2022/02/12 12:04:14;;;;;;;8.80;5.77;;;6.70;94.60;;;;;;10401438;28;20316;-80
2022/02/12 12:09:16;;;;;;;7.20;5.27;;;6.70;94.60;;;;;;10431674;28;20217;-80
2022/02/12 12:14:43;;;;;;;8.20;5.70;;;6.80;94.60;;;;;;10430099;28;20225;-80
2022/02/12 12:19:53;;;;;;;9.60;6.03;;;6.80;94.80;;;;;;10416191;28;20210;-82
2022/02/12 12:24:59;;;;;;;6.23;5.47;;;6.90;94.10;;;;;;10419758;28;20205;-82
2022/02/12 12:35:33;;;;;;;4.80;4.30;;;7.10;93.70;;;;;;10403651;28;20219;-80
2022/02/12 12:40:35;;;;;;;5.60;4.57;;;7.10;94.20;;;;;;10443658;28;20237;-82
2022/02/12 12:45:41;;;;;;;7.37;3.53;;;7.20;93.40;;;;;;10424854;28;20272;-80
2022/02/12 12:50:45;;;;;;;3.50;3.17;;;7.30;92.00;;;;;;10404566;28;20303;-80
2022/02/12 12:55:47;;;;;;;3.50;3.20;;;7.30;89.70;;;;;;10433399;28;20760;-79
2022/02/12 13:00:50;;;;;;;3.60;3.30;;;7.40;90.50;;;;;;10408096;28;20214;-82
2022/02/12 13:06:03;;;;;;;3.47;3.23;;;7.40;92.40;;;;;;10407692;28;20194;-79
2022/02/12 13:11:06;;;;;;;3.70;3.40;;;7.50;91.80;;;;;;10406552;28;20225;-79
2022/02/12 13:16:09;;;;;;;3.77;3.00;;;7.60;90.40;;;;;;10392079;28;20256;-81
2022/02/12 13:21:14;;;;;;;3.27;3.00;;;7.60;90.60;;;;;;10427632;28;20232;-80
2022/02/12 13:26:21;;;;;;;3.30;3.00;;;7.70;88.60;;;;;;10409905;28;20273;-79
2022/02/12 13:31:26;;;;;;;3.97;3.43;;;7.70;90.30;;;;;;10420850;28;20846;-77
2022/02/12 13:36:29;;;;;;;3.90;3.60;;;7.80;86.30;;;;;;10418236;28;20202;-79
2022/02/12 13:41:38;;;;;;;6.10;3.77;;;7.80;90.40;;;;;;10463271;22;20235;-78
2022/02/12 13:46:42;;;;;;;3.50;3.20;;;7.90;86.50;;;;;;10466467;28;20207;-78
2022/02/12 13:51:56;;;;;;;4.03;3.50;;;7.90;89.90;;;;;;10494795;28;20259;-79
2022/02/12 13:57:00;;;;;;;4.30;3.53;;;8.00;90.00;;;;;;10481542;28;20203;-78
2022/02/12 14:02:02;;;;;;;4.17;3.77;;;8.10;84.30;;;;;;10496555;28;20220;-78
2022/02/12 14:07:05;;;;;;;5.50;4.10;;;8.10;84.00;;;;;;10483450;28;20199;-78
2022/02/12 14:12:08;;;;;;;6.03;4.13;;;8.10;83.10;;;;;;10502107;28;20251;-78
2022/02/12 14:17:10;;;;;;;4.87;4.47;;;8.00;84.60;;;;;;10496641;28;20665;-78
2022/02/12 14:22:13;;;;;;;6.23;4.40;;;8.00;86.00;;;;;;10498208;28;20489;-78
2022/02/12 14:27:15;;;;;;;5.03;4.63;;;8.10;85.30;;;;;;10499013;28;20203;-78
2022/02/12 14:32:18;;;;;;;6.10;4.33;;;8.10;87.10;;;;;;10498372;28;20320;-78
2022/02/12 14:37:21;;;;;;;5.40;4.70;;;8.20;85.60;;;;;;10505494;28;20208;-78
2022/02/12 14:42:23;;;;;;;6.70;5.53;;;8.20;85.20;;;;;;10508109;28;20235;-78
2022/02/12 14:47:25;;;;;;;10.20;5.40;;;8.30;85.50;;;;;;10474704;28;20219;-78
2022/02/12 14:52:29;;;;;;;6.30;5.70;;;8.20;87.20;;;;;;10495172;28;20224;-78
2022/02/12 14:57:31;;;;;;;5.20;4.70;;;8.30;86.40;;;;;;10503203;28;20337;-78
2022/02/12 15:02:34;;;;;;;4.67;4.30;;;8.20;89.70;;;;;;10486354;28;20222;-78
2022/02/12 15:07:38;;;;;;;6.67;5.60;;;8.30;88.10;;;;;;10503050;28;20207;-79
2022/02/12 15:12:40;;;;;;;8.23;6.10;;;8.20;87.60;;;;;;10487328;28;20224;-78
2022/02/12 15:17:42;;;;;;;5.80;5.27;;;8.20;85.80;;;;;;10505092;28;20200;-78
2022/02/12 15:22:45;;;;;;;7.03;5.93;;;8.10;88.80;;;;;;10504866;28;20232;-78
2022/02/12 15:27:48;;;;;;;5.10;4.70;;;8.00;90.40;;;;;;10504322;28;20192;-78
2022/02/12 15:32:51;;;;;;;6.30;5.60;;;8.00;92.00;;;;;;10488061;28;20303;-78
2022/02/12 15:37:54;;;;;;;7.53;6.77;;;8.00;90.50;;;;;;10504859;28;20192;-78
2022/02/12 15:42:56;;;;;;;12.30;7.00;;;8.00;90.90;;;;;;10507064;28;20224;-79
2022/02/12 15:47:59;;;;;;;7.47;6.80;;;8.00;91.00;;;;;;10507175;28;20215;-79
2022/02/12 15:53:02;;;;;;;7.97;7.17;;;8.00;92.60;;;;;;10483345;28;20315;-78
2022/02/12 15:58:04;;;;;;;10.40;7.50;;;8.00;93.30;;;;;;10504658;28;20193;-79
2022/02/12 16:03:07;;;;;;;7.80;7.00;;;8.00;93.80;;;;;;10486742;28;20299;-79
2022/02/12 16:08:10;;;;;;;7.43;6.73;;;8.00;94.70;;;;;;10504349;28;20215;-78
2022/02/12 16:13:12;;;;;;;8.90;6.50;;;7.90;95.10;;;;;;10504230;28;20706;-78
2022/02/12 16:18:15;;;;;;;8.50;6.77;;;7.80;94.90;;;;;;10485028;28;20189;-78
2022/02/12 16:23:19;;;;;;;8.20;7.50;;;7.80;94.70;;;;;;10469796;28;20220;-79
2022/02/12 16:28:21;;;;;;;7.23;6.47;;;7.70;95.90;;;;;;10490640;28;20703;-78
2022/02/12 16:33:23;;;;;;;9.10;6.00;;;7.70;95.60;;;;;;10500375;28;20236;-79
2022/02/12 16:38:27;;;;;;;8.07;5.47;;;7.60;94.60;;;;;;10499750;28;20230;-79
2022/02/12 16:43:29;;;;;;;7.27;5.63;;;7.50;94.90;;;;;;10503082;28;20770;-78
2022/02/12 16:48:31;;;;;;;5.93;5.40;;;7.30;95.30;;;;;;10501793;28;20213;-79
2022/02/12 16:53:35;;;;;;;6.53;5.87;;;7.20;95.00;;;;;;10485728;28;20262;-78
2022/02/12 16:58:38;;;;;;;8.53;6.30;;;7.00;95.90;;;;;;10483978;28;20295;-79
2022/02/12 17:03:40;;;;;;;7.73;6.03;;;6.90;96.10;;;;;;10484777;28;20253;-79
2022/02/12 17:08:43;;;;;;;7.13;6.20;;;6.70;95.90;;;;;;10486615;28;20224;-79
2022/02/12 17:13:45;;;;;;;13.60;7.23;;;6.60;95.70;;;;;;10503222;28;20307;-79
2022/02/12 17:18:47;;;;;;;11.53;7.20;;;6.40;96.10;;;;;;10500791;28;20243;-79
2022/02/12 17:23:52;;;;;;;13.47;10.10;;;6.20;96.10;;;;;;10486537;28;20220;-77
2022/02/12 17:28:54;;;;;;;8.50;7.70;;;6.10;96.20;;;;;;10508587;28;20213;-79
2022/02/12 17:33:56;;;;;;;10.27;6.70;;;6.00;96.20;;;;;;10485285;28;20212;-79
2022/02/12 17:38:59;;;;;;;12.50;9.07;;;5.90;96.70;;;;;;10485492;28;20689;-79
2022/02/12 17:44:02;;;;;;;15.47;9.20;;;5.80;96.30;;;;;;10484097;28;20232;-78
2022/02/12 17:49:05;;;;;;;10.87;7.57;;;5.70;96.30;;;;;;10484850;28;20205;-77
2022/02/12 17:54:08;;;;;;;10.00;8.67;;;5.60;97.10;;;;;;10503565;28;20220;-79
2022/02/12 17:59:11;;;;;;;13.67;8.40;;;5.50;97.40;;;;;;10484137;28;20628;-78
2022/02/12 18:04:13;;;;;;;9.30;8.40;;;5.50;97.70;;;;;;10481396;28;20248;-80
2022/02/12 18:14:36;;;;;;;10.37;7.67;;;5.40;97.50;;;;;;10493179;28;20230;-80
2022/02/12 18:19:39;;;;;;;9.67;8.70;;;5.30;97.80;;;;;;10512879;28;20205;-78
2022/02/12 18:24:42;;;;;;;11.80;10.60;;;5.20;98.40;;;;;;10493198;28;20592;-80
2022/02/12 18:29:45;;;;;;;13.43;10.80;;;5.20;97.40;;;;;;10476007;28;20223;-80
2022/02/12 18:34:47;;;;;;;10.80;9.80;;;5.20;98.00;;;;;;10511972;28;20196;-80
2022/02/12 18:39:50;;;;;;;9.10;8.10;;;5.10;98.40;;;;;;10492634;28;20192;-79
2022/02/12 18:44:53;;;;;;;10.73;8.30;;;5.10;97.90;;;;;;10511480;28;20575;-80
2022/02/12 18:49:55;;;;;;;9.03;7.70;;;5.10;98.80;;;;;;10493116;28;20242;-77
2022/02/12 18:54:59;;;;;;;9.43;8.53;;;5.00;98.10;;;;;;10510452;28;20288;-78
2022/02/12 19:00:02;;;;;;;9.50;8.50;;;5.00;98.10;;;;;;10492678;28;20196;-80
2022/02/12 19:05:04;;;;;;;9.00;8.07;;;5.00;97.70;;;;;;10492595;28;20193;-80
2022/02/12 19:10:09;;;;;;;11.97;9.67;;;4.90;98.70;;;;;;10493740;28;20252;-80
2022/02/12 19:15:12;;;;;;;11.10;8.53;;;4.90;99.00;;;;;;10502408;28;20205;-80
2022/02/12 19:20:15;;;;;;;10.10;9.10;;;4.90;97.90;;;;;;10494119;28;20231;-80
2022/02/12 19:25:19;;;;;;;9.43;8.57;;;4.90;99.20;;;;;;10495320;28;20672;-79
2022/02/12 19:30:21;;;;;;;12.00;10.70;;;4.80;98.50;;;;;;10492393;28;20569;-79
2022/02/12 19:35:23;;;;;;;12.37;11.07;;;4.80;99.40;;;;;;10506994;28;20196;-79
2022/02/12 19:40:28;;;;;;;12.23;10.80;;;4.80;99.40;;;;;;10486790;28;20228;-80
2022/02/12 19:45:30;;;;;;;11.80;10.20;;;4.70;98.50;;;;;;10471271;28;20201;-77
2022/02/12 19:50:33;;;;;;;11.73;10.63;;;4.70;98.20;;;;;;10488521;28;20315;-78
2022/02/12 19:55:38;;;;;;;14.20;11.90;;;4.60;97.90;;;;;;10507218;28;20200;-79
2022/02/12 20:00:40;;;;;;;15.83;14.23;;;4.50;98.30;;;;;;10491166;28;20216;-79
2022/02/12 20:05:42;;;;;;;15.63;13.00;;;4.50;98.60;;;;;;10507816;28;20232;-81
2022/02/12 20:10:46;;;;;;;17.50;15.63;;;4.40;98.70;;;;;;10508147;28;20220;-78
2022/02/12 20:15:50;;;;;;;15.30;13.90;;;4.30;99.00;;;;;;10505348;28;20207;-78
2022/02/12 20:20:52;;;;;;;18.87;14.30;;;4.30;99.20;;;;;;10497337;28;20300;-79
2022/02/12 20:25:56;;;;;;;15.57;12.60;;;4.30;98.70;;;;;;10504973;28;20271;-80
2022/02/12 20:30:58;;;;;;;12.70;10.47;;;4.30;98.00;;;;;;10492363;28;20765;-79
2022/02/12 20:36:00;;;;;;;14.87;11.70;;;4.10;98.60;;;;;;10512911;28;20219;-78
2022/02/12 20:41:04;;;;;;;13.60;12.20;;;4.20;98.50;;;;;;10489823;28;20233;-79
2022/02/12 20:46:06;;;;;;;15.43;13.30;;;4.10;98.70;;;;;;10489582;28;20215;-79
2022/02/12 20:51:08;;;;;;;13.57;11.80;;;4.00;98.90;;;;;;10475216;28;20228;-78
2022/02/12 20:56:11;;;;;;;18.77;14.20;;;4.00;98.70;;;;;;10482523;28;20216;-79
2022/02/12 21:01:14;;;;;;;14.77;13.00;;;3.90;98.80;;;;;;10482382;28;20217;-79
2022/02/12 21:06:16;;;;;;;12.50;11.20;;;3.80;98.40;;;;;;10470971;28;20283;-79
2022/02/12 21:11:19;;;;;;;13.80;11.20;;;3.80;98.10;;;;;;10487830;28;20220;-78
2022/02/12 21:16:21;;;;;;;12.40;11.20;;;3.70;98.10;;;;;;10505147;28;20239;-79
2022/02/12 21:21:25;;;;;;;12.20;11.00;;;3.60;97.90;;;;;;10503559;28;20216;-79
2022/02/12 21:26:28;;;;;;;11.43;10.33;;;3.50;98.80;;;;;;10503549;28;20202;-78
2022/02/12 21:31:32;;;;;;;11.23;10.17;;;3.50;98.20;;;;;;10503986;28;20763;-78
2022/02/12 21:36:35;;;;;;;13.13;11.03;;;3.40;98.30;;;;;;10485483;28;20282;-79
2022/02/12 21:41:40;;;;;;;10.93;9.93;;;3.40;99.10;;;;;;10486583;28;20250;-78
2022/02/12 21:46:42;;;;;;;11.20;10.17;;;3.40;98.70;;;;;;10502514;28;20242;-78
2022/02/12 21:51:44;;;;;;;11.37;10.27;;;3.40;98.60;;;;;;10485948;28;20281;-79
2022/02/12 21:56:48;;;;;;;10.33;9.33;;;3.40;99.10;;;;;;10503431;28;20725;-78
2022/02/12 22:01:50;;;;;;;9.40;8.60;;;3.40;99.00;;;;;;10487012;28;20579;-79
2022/02/12 22:06:52;;;;;;;10.30;9.30;;;3.30;99.20;;;;;;10486114;28;20197;-79
2022/02/12 22:11:55;;;;;;;10.93;9.70;;;3.30;99.40;;;;;;10486138;28;20227;-78
2022/02/12 22:16:58;;;;;;;9.73;8.73;;;3.30;99.10;;;;;;10487877;28;20246;-79
2022/02/12 22:22:00;;;;;;;9.40;8.50;;;3.40;98.90;;;;;;10486852;28;20235;-79
2022/02/12 22:27:03;;;;;;;8.20;7.40;;;3.30;98.70;;;;;;10497926;28;20204;-79
2022/02/12 22:32:07;;;;;;;10.57;8.27;;;3.30;98.60;;;;;;10504960;28;20274;-79
2022/02/12 22:37:09;;;;;;;9.90;9.07;;;3.20;98.80;;;;;;10486947;28;20246;-78
2022/02/12 22:42:12;;;;;;;8.90;8.10;;;3.20;98.20;;;;;;10484265;28;20582;-78
2022/02/12 22:47:15;;;;;;;11.20;8.73;;;3.20;98.80;;;;;;10467791;28;20216;-78
2022/02/12 22:52:17;;;;;;;10.00;9.00;;;3.20;98.90;;;;;;10468377;28;20291;-78
2022/02/12 22:57:20;;;;;;;13.87;11.20;;;3.20;98.50;;;;;;10489529;28;20206;-78
2022/02/12 23:02:22;;;;;;;10.87;9.53;;;3.10;99.00;;;;;;10509193;28;20307;-78
2022/02/12 23:07:24;;;;;;;10.50;9.50;;;3.10;98.60;;;;;;10510544;28;20197;-78
2022/02/12 23:12:27;;;;;;;9.10;8.23;;;3.10;98.90;;;;;;10510223;28;20700;-78
2022/02/12 23:17:30;;;;;;;15.93;10.20;;;3.10;98.60;;;;;;10508396;28;20216;-78
2022/02/12 23:22:32;;;;;;;8.93;8.07;;;3.10;98.20;;;;;;10477076;28;20311;-78
2022/02/12 23:27:36;;;;;;;9.63;8.80;;;3.00;98.00;;;;;;10492083;28;20227;-79
2022/02/12 23:32:38;;;;;;;9.67;8.67;;;2.90;98.60;;;;;;10487887;28;20252;-79
2022/02/12 23:37:41;;;;;;;9.40;8.50;;;2.90;98.90;;;;;;10511148;28;20222;-79
2022/02/12 23:42:45;;;;;;;8.73;7.93;;;2.90;98.40;;;;;;10511417;28;20220;-79
2022/02/12 23:47:47;;;;;;;10.60;9.40;;;2.90;98.90;;;;;;10492993;28;20193;-79
2022/02/12 23:52:52;;;;;;;9.50;8.70;;;2.90;99.90;;;;;;10495766;28;20224;-78
2022/02/12 23:57:55;;;;;;;10.07;8.70;;;2.90;98.50;;;;;;10481582;28;20197;-78
